createdAt,value
2018-08-18T00:04:13.398Z,5.40
2018-08-18T00:09:17.401Z,5.00
2018-08-18T00:14:21.174Z,4.00
2018-08-18T00:19:26.341Z,5.60
2018-08-18T00:24:30.049Z,5.00
2018-08-18T00:29:33.701Z,5.60
2018-08-18T00:34:41.817Z,6.00
2018-08-18T00:39:45.518Z,6.00
2018-08-18T00:44:49.190Z,4.20
2018-08-18T00:49:52.879Z,6.00
2018-08-18T00:54:56.531Z,5.80
2018-08-18T01:05:10.540Z,6.60
2018-08-18T01:10:14.306Z,6.00
2018-08-18T01:15:21.737Z,6.00
2018-08-18T01:20:25.586Z,6.00
2018-08-18T01:25:29.428Z,6.50
2018-08-18T01:30:33.094Z,6.00
2018-08-18T01:35:36.775Z,5.60
2018-08-18T01:40:40.496Z,5.25
2018-08-18T01:45:44.228Z,5.00
2018-08-18T01:50:47.866Z,5.50
2018-08-18T01:55:52.121Z,6.60
2018-08-18T02:00:55.836Z,6.00
2018-08-18T02:05:59.496Z,6.50
2018-08-18T02:11:03.192Z,6.00
2018-08-18T02:16:06.966Z,6.00
2018-08-18T02:21:20.890Z,4.40
2018-08-18T02:26:24.507Z,5.20
2018-08-18T02:31:28.237Z,6.00
2018-08-18T02:36:31.871Z,5.00
2018-08-18T02:41:35.653Z,5.50
2018-08-18T02:46:40.012Z,5.75
2018-08-18T02:51:43.842Z,6.00
2018-08-18T02:56:47.574Z,5.00
2018-08-18T03:01:51.196Z,5.00
2018-08-18T03:06:55.032Z,4.25
2018-08-18T03:11:58.675Z,6.00
2018-08-18T03:17:03.085Z,4.00
2018-08-18T03:22:06.878Z,4.40
2018-08-18T03:27:11.124Z,4.50
2018-08-18T03:32:15.080Z,4.00
2018-08-18T03:37:30.834Z,4.75
2018-08-18T03:42:40.037Z,4.00
2018-08-18T03:47:43.997Z,4.75
2018-08-18T03:52:49.953Z,4.75
2018-08-18T03:57:53.742Z,5.25
2018-08-18T04:02:57.416Z,5.00
2018-08-18T04:08:01.442Z,5.00
2018-08-18T04:13:06.099Z,5.20
2018-08-18T04:18:14.657Z,4.00
2018-08-18T04:23:18.817Z,5.00
2018-08-18T04:28:22.724Z,4.20
2018-08-18T04:33:26.393Z,4.50
2018-08-18T04:38:31.476Z,4.00
2018-08-18T04:43:35.221Z,4.00
2018-08-18T04:48:39.336Z,4.75
2018-08-18T04:53:43.390Z,4.25
2018-08-18T04:58:47.183Z,3.75
2018-08-18T05:04:00.705Z,5.00
2018-08-18T05:09:06.385Z,4.00
2018-08-18T05:14:11.006Z,4.00
2018-08-18T05:19:15.512Z,4.00
2018-08-18T05:24:26.634Z,4.00
2018-08-18T05:29:30.822Z,5.75
2018-08-18T05:34:34.755Z,6.00
2018-08-18T05:39:38.426Z,5.50
2018-08-18T05:44:42.860Z,5.00
2018-08-18T05:49:46.595Z,6.00
2018-08-18T05:54:50.577Z,6.00
2018-08-18T05:59:54.278Z,7.00
2018-08-18T06:04:57.940Z,6.00
2018-08-18T06:10:05.696Z,5.50
2018-08-18T06:15:09.422Z,4.80
2018-08-18T06:20:13.338Z,5.00
2018-08-18T06:25:18.047Z,5.00
2018-08-18T06:30:23.855Z,6.00
2018-08-18T06:35:29.358Z,6.00
2018-08-18T06:40:34.082Z,4.00
2018-08-18T06:45:37.794Z,4.00
2018-08-18T06:50:42.004Z,5.00
2018-08-18T06:55:45.927Z,5.20
2018-08-18T07:00:49.619Z,6.00
2018-08-18T07:05:53.312Z,5.80
2018-08-18T07:10:57.046Z,6.00
2018-08-18T07:16:00.759Z,6.00
2018-08-18T07:21:04.425Z,6.00
2018-08-18T07:26:08.483Z,6.00
2018-08-18T07:31:12.278Z,6.00
2018-08-18T07:36:15.978Z,6.00
2018-08-18T07:41:20.070Z,5.00
2018-08-18T07:46:23.677Z,4.50
2018-08-18T07:51:29.634Z,5.00
2018-08-18T07:56:33.290Z,5.50
2018-08-18T08:01:37.062Z,5.00
2018-08-18T08:06:40.819Z,3.60
2018-08-18T08:11:44.422Z,4.00
2018-08-18T08:16:48.264Z,4.25
2018-08-18T08:21:52.877Z,5.80
2018-08-18T08:26:56.646Z,4.80
2018-08-18T08:32:01.172Z,4.00
2018-08-18T08:37:06.122Z,4.00
2018-08-18T08:42:11.048Z,4.00
2018-08-18T08:47:16.569Z,3.25
2018-08-18T08:52:20.522Z,4.00
2018-08-18T08:57:24.180Z,3.00
2018-08-18T09:02:27.904Z,3.50
2018-08-18T09:07:31.687Z,4.00
2018-08-18T09:12:35.442Z,2.75
2018-08-18T09:17:39.133Z,3.60
2018-08-18T09:22:51.253Z,4.00
2018-08-18T09:27:56.226Z,4.00
2018-08-18T09:33:03.412Z,2.80
2018-08-18T09:38:08.163Z,3.50
2018-08-18T09:43:17.141Z,4.20
